Time;durP1;ratioP1;P1;durP2;ratioP2;P2;SDS_P1;SDS_P2;PMS_P1;PMS_P2;Temp;Humidity;BMP_temperature;BMP_pressure;BME280_temperature;BME280_humidity;BME280_pressure;Samples;Min_cycle;Max_cycle;Signal;HPM_P1;HPM_P2
2022/08/19 00:00:27;;;;;;;10.75;3.70;;;;;;;22.21;63.12;99957.33;1710678;83;21074;-64
2022/08/19 00:02:57;;;;;;;8.18;3.70;;;;;;;22.21;63.09;99965.14;1710407;83;21082;-64
2022/08/19 00:05:26;;;;;;;7.72;4.03;;;;;;;22.20;63.10;99961.24;1716693;83;21193;-64
2022/08/19 00:07:55;;;;;;;11.38;4.00;;;;;;;22.19;63.33;99964.59;1706031;83;21467;-65
2022/08/19 00:10:26;;;;;;;8.38;3.95;;;;;;;22.14;63.54;99957.64;1702615;83;21034;-64
2022/08/19 00:12:56;;;;;;;7.70;4.00;;;;;;;22.06;63.86;99963.22;1702340;82;21039;-64
2022/08/19 00:15:27;;;;;;;11.75;3.90;;;;;;;22.04;63.95;99964.06;1699706;83;21054;-64
2022/08/19 00:17:57;;;;;;;7.75;3.98;;;;;;;22.03;64.01;99965.17;1707582;83;21106;-63
2022/08/19 00:20:28;;;;;;;8.78;3.90;;;;;;;22.00;64.01;99964.32;1713546;83;21050;-63
2022/08/19 00:22:58;;;;;;;9.23;3.67;;;;;;;22.00;64.15;99970.45;1701056;83;21063;-64
2022/08/19 00:25:28;;;;;;;6.05;4.37;;;;;;;22.00;64.26;99956.52;1711359;82;21027;-65
2022/08/19 00:28:00;;;;;;;11.50;3.98;;;;;;;21.96;64.36;99966.00;1715165;83;21462;-64
2022/08/19 00:30:31;;;;;;;9.05;4.10;;;;;;;21.90;64.57;99960.17;1720783;82;21090;-64
2022/08/19 00:33:01;;;;;;;12.13;4.20;;;;;;;21.82;64.95;99965.77;1710860;82;21027;-64
2022/08/19 00:35:31;;;;;;;16.97;4.25;;;;;;;21.77;65.13;99964.38;1713777;83;21050;-64
2022/08/19 00:38:02;;;;;;;7.65;4.08;;;;;;;21.79;65.16;99955.17;1715433;83;21454;-63
2022/08/19 00:40:32;;;;;;;10.28;4.35;;;;;;;21.77;65.26;99962.15;1701626;83;21109;-64
2022/08/19 00:43:04;;;;;;;6.20;4.08;;;;;;;21.71;65.54;99958.54;1716569;82;21086;-64
2022/08/19 00:45:35;;;;;;;7.30;4.05;;;;;;;21.69;65.50;99954.36;1681601;83;21133;-63
2022/08/19 00:48:06;;;;;;;7.47;4.00;;;;;;;21.71;65.55;99958.54;1714380;83;21149;-64
2022/08/19 00:50:40;;;;;;;9.83;4.37;;;;;;;21.72;65.42;99958.81;1708807;83;21106;-63
2022/08/19 00:53:14;;;;;;;7.30;4.12;;;;;;;21.74;65.42;99963.55;1729000;82;21018;-64
2022/08/19 00:56:06;;;;;;;11.33;4.55;;;;;;;21.75;65.40;99966.62;1716013;83;21087;-64
2022/08/19 00:58:36;;;;;;;12.20;4.67;;;;;;;21.74;65.37;99971.08;1755739;79;21084;-64
2022/08/19 01:01:07;;;;;;;6.62;4.33;;;;;;;21.71;65.33;99985.03;1776296;79;21092;-64
2022/08/19 01:03:37;;;;;;;12.37;4.33;;;;;;;21.69;65.47;99977.50;1795447;79;21038;-64
2022/08/19 01:06:09;;;;;;;10.23;4.20;;;;;;;21.66;65.68;99979.46;1774875;79;21051;-65
2022/08/19 01:08:40;;;;;;;9.00;4.37;;;;;;;21.67;65.67;99983.09;1782028;79;21015;-65
2022/08/19 01:11:10;;;;;;;7.85;4.28;;;;;;;21.65;65.78;99979.74;1767510;79;21029;-64
2022/08/19 01:13:41;;;;;;;7.95;4.65;;;;;;;21.61;65.94;99982.26;1771724;79;21024;-62
2022/08/19 01:16:13;;;;;;;10.00;4.78;;;;;;;21.59;66.00;99984.49;1780851;79;21244;-64
2022/08/19 01:18:43;;;;;;;9.35;4.33;;;;;;;21.60;65.93;99979.75;1796377;79;21471;-64
2022/08/19 01:21:30;;;;;;;8.73;4.47;;;;;;;21.60;65.87;99975.56;1795022;79;21016;-65
2022/08/19 01:24:00;;;;;;;9.10;4.35;;;;;;;21.61;65.99;99978.08;1798038;79;20999;-65
2022/08/19 01:26:31;;;;;;;8.98;4.22;;;;;;;21.59;66.05;99978.91;1799147;79;21031;-65
2022/08/19 01:29:01;;;;;;;9.80;4.62;;;;;;;21.58;66.08;99973.06;1780368;79;21061;-64
2022/08/19 01:31:32;;;;;;;10.20;4.60;;;;;;;21.54;66.22;99969.72;1801266;79;21056;-65
2022/08/19 01:34:02;;;;;;;9.83;4.50;;;;;;;21.51;66.22;99971.13;1772028;79;21084;-65
2022/08/19 01:36:39;;;;;;;9.70;4.62;;;;;;;21.50;66.15;99968.05;1788893;79;21056;-64
2022/08/19 01:39:12;;;;;;;7.97;4.35;;;;;;;21.51;66.17;99966.94;1776586;79;21079;-63
2022/08/19 01:41:42;;;;;;;6.65;4.33;;;;;;;21.49;66.24;99968.61;1789146;79;21048;-63
2022/08/19 01:44:12;;;;;;;7.42;4.95;;;;;;;21.46;66.29;99967.78;1774467;79;21514;-64
2022/08/19 01:46:44;;;;;;;9.30;4.28;;;;;;;21.43;66.35;99957.72;1780095;79;21019;-64
2022/08/19 01:49:14;;;;;;;8.65;4.42;;;;;;;21.42;66.48;99956.88;1809847;79;21019;-64
2022/08/19 01:51:44;;;;;;;8.80;4.40;;;;;;;21.38;66.61;99957.72;1800818;79;20995;-65
2022/08/19 01:54:15;;;;;;;9.38;4.70;;;;;;;21.33;66.71;99953.55;1769079;79;21425;-64
2022/08/19 01:56:47;;;;;;;8.08;4.72;;;;;;;21.33;66.76;99950.20;1780504;79;21478;-64
2022/08/19 01:59:19;;;;;;;8.30;4.62;;;;;;;21.36;66.78;99946.02;1768309;80;21083;-64
2022/08/19 02:01:48;;;;;;;9.18;4.53;;;;;;;21.36;66.80;99944.06;1737922;80;21550;-62
2022/08/19 02:04:17;;;;;;;17.25;7.35;;;;;;;21.30;66.81;99947.97;1759978;80;20975;-64
2022/08/19 02:06:48;;;;;;;11.22;5.40;;;;;;;21.29;66.97;99955.22;1772570;80;21056;-63
2022/08/19 02:09:18;;;;;;;9.35;4.58;;;;;;;21.28;67.16;99954.94;1767845;80;21037;-64
2022/08/19 02:11:47;;;;;;;8.65;4.78;;;;;;;21.25;67.17;99952.70;1764103;80;21030;-63
2022/08/19 02:14:22;;;;;;;9.38;5.10;;;;;;;21.24;67.32;99958.84;1784086;79;21018;-63
2022/08/19 02:16:51;;;;;;;10.53;5.40;;;;;;;21.24;67.24;99964.97;1772669;79;21021;-64
2022/08/19 02:19:20;;;;;;;12.60;5.05;;;;;;;21.20;67.33;99961.31;1774371;80;21018;-63
2022/08/19 02:21:49;;;;;;;9.35;4.95;;;;;;;21.14;67.46;99961.59;1770151;79;21084;-64
2022/08/19 02:24:21;;;;;;;9.95;4.80;;;;;;;21.08;67.65;99967.72;1755560;80;20999;-64
2022/08/19 02:26:51;;;;;;;9.80;5.00;;;;;;;21.07;67.91;99967.44;1770052;80;21454;-64
2022/08/19 02:29:21;;;;;;;9.78;4.80;;;;;;;21.04;68.05;99965.21;1766965;80;21427;-64
2022/08/19 02:31:51;;;;;;;9.30;4.60;;;;;;;21.00;68.08;99961.31;1777549;80;21075;-64
2022/08/19 02:34:21;;;;;;;11.48;5.37;;;;;;;20.97;68.19;99961.86;1771651;80;21053;-64
2022/08/19 02:36:51;;;;;;;13.40;5.30;;;;;;;20.95;68.34;99967.43;1775939;79;21044;-63
2022/08/19 02:39:21;;;;;;;10.72;4.95;;;;;;;20.95;68.47;99973.00;1783624;80;21023;-64
2022/08/19 02:41:52;;;;;;;13.53;4.55;;;;;;;20.96;68.48;99979.69;1778174;80;21126;-63
2022/08/19 02:44:21;;;;;;;9.68;4.70;;;;;;;20.93;68.50;99976.06;1718168;82;21165;-65
2022/08/19 02:46:53;;;;;;;10.35;5.00;;;;;;;20.93;68.57;99976.06;1774168;80;21072;-64
2022/08/19 02:49:23;;;;;;;9.80;5.55;;;;;;;20.89;68.77;99967.98;1784825;79;21058;-64
2022/08/19 02:51:54;;;;;;;8.23;5.30;;;;;;;20.88;68.86;99960.18;1757199;80;21092;-63
2022/08/19 02:54:24;;;;;;;11.20;4.97;;;;;;;20.88;68.82;99964.91;1768968;80;21022;-63
2022/08/19 02:56:53;;;;;;;9.58;4.85;;;;;;;20.87;68.86;99969.65;1758770;79;21012;-63
2022/08/19 02:59:23;;;;;;;10.38;5.33;;;;;;;20.84;68.90;99968.81;1771911;79;21492;-63
2022/08/19 03:01:53;;;;;;;13.72;5.22;;;;;;;20.82;68.98;99978.55;1799635;79;21501;-63
2022/08/19 03:04:24;;;;;;;7.92;4.90;;;;;;;20.83;69.03;99981.06;1785540;79;21046;-64
2022/08/19 03:06:54;;;;;;;10.98;4.97;;;;;;;20.80;69.08;99981.58;1806486;79;21086;-63
2022/08/19 03:09:26;;;;;;;10.15;4.83;;;;;;;20.80;69.08;99966.82;1800612;79;21030;-64
2022/08/19 03:11:56;;;;;;;10.18;5.33;;;;;;;20.75;69.10;99966.81;1805441;79;21485;-63
2022/08/19 03:14:25;;;;;;;9.10;4.83;;;;;;;20.70;69.27;99973.20;1802340;79;21050;-63
2022/08/19 03:16:54;;;;;;;10.08;4.62;;;;;;;20.71;69.33;99981.00;1789737;79;21039;-64
2022/08/19 03:19:24;;;;;;;7.72;4.70;;;;;;;20.72;69.46;99975.16;1803250;79;21019;-63
2022/08/19 03:21:55;;;;;;;13.68;5.40;;;;;;;20.71;69.48;99979.05;1791134;79;21002;-62
2022/08/19 03:24:27;;;;;;;11.12;4.72;;;;;;;20.72;69.51;99982.67;1814705;79;21047;-63
2022/08/19 03:26:57;;;;;;;13.10;5.08;;;;;;;20.72;69.45;99991.86;1781713;79;21066;-64
2022/08/19 03:29:28;;;;;;;13.38;5.10;;;;;;;20.70;69.46;99997.42;1803349;79;21062;-64
2022/08/19 03:32:01;;;;;;;8.60;4.85;;;;;;;20.70;69.45;99997.42;1799055;79;21053;-64
2022/08/19 03:34:34;;;;;;;11.93;5.10;;;;;;;20.73;69.31;99990.75;1783892;79;20971;-63
2022/08/19 03:37:08;;;;;;;9.40;5.22;;;;;;;20.73;69.32;99990.75;1769790;79;21014;-64
2022/08/19 03:39:39;;;;;;;13.48;5.33;;;;;;;20.74;69.40;99996.60;1800218;79;21701;-63
2022/08/19 03:42:09;;;;;;;6.70;4.72;;;;;;;20.73;69.35;100001.89;1808259;79;21026;-64
2022/08/19 03:44:42;;;;;;;14.63;5.40;;;;;;;20.74;69.39;100001.33;1783545;79;21470;-64
2022/08/19 03:47:15;;;;;;;7.25;4.97;;;;;;;20.69;69.42;100006.33;1807702;79;21066;-64
2022/08/19 03:49:43;;;;;;;11.60;4.97;;;;;;;20.68;69.49;100009.39;1799977;79;21016;-62
2022/08/19 03:52:13;;;;;;;14.33;5.40;;;;;;;20.69;69.40;100013.84;1771491;79;21055;-63
2022/08/19 03:54:44;;;;;;;10.45;5.22;;;;;;;20.69;69.54;100012.45;1784225;79;21022;-64
2022/08/19 03:57:14;;;;;;;11.85;5.25;;;;;;;20.69;69.46;100023.03;1816197;78;21042;-64
2022/08/19 03:59:44;;;;;;;12.70;5.53;;;;;;;20.70;69.33;100012.73;1814323;79;21423;-64
2022/08/19 04:02:14;;;;;;;10.78;5.35;;;;;;;20.71;69.26;100016.64;1795527;79;21447;-63
2022/08/19 04:04:45;;;;;;;12.00;5.78;;;;;;;20.72;69.09;100018.87;1786760;79;21073;-64
2022/08/19 04:07:17;;;;;;;16.10;6.80;;;;;;;20.72;69.02;100010.52;1774869;79;21401;-64
2022/08/19 04:09:49;;;;;;;11.22;5.33;;;;;;;20.74;68.79;100014.70;1797122;79;21027;-65
2022/08/19 04:12:20;;;;;;;10.15;5.08;;;;;;;20.76;68.89;100008.86;1797627;79;21029;-64
2022/08/19 04:14:49;;;;;;;12.30;5.28;;;;;;;20.78;68.82;100008.03;1800798;79;21026;-63
2022/08/19 04:17:21;;;;;;;9.98;4.62;;;;;;;20.79;68.78;100007.75;1816883;79;21007;-64
2022/08/19 04:19:51;;;;;;;11.10;5.00;;;;;;;20.78;68.56;100013.59;1789600;79;21415;-65
2022/08/19 04:22:20;;;;;;;12.30;5.15;;;;;;;20.79;68.50;100012.48;1798558;79;21083;-64
2022/08/19 04:24:50;;;;;;;8.50;4.62;;;;;;;20.81;68.62;100015.31;1811806;79;21030;-65
2022/08/19 04:27:20;;;;;;;11.08;4.90;;;;;;;20.82;68.51;100020.32;1796735;79;20979;-64
2022/08/19 04:29:54;;;;;;;9.55;4.62;;;;;;;20.84;68.42;100023.11;1802321;79;20994;-64
2022/08/19 04:32:23;;;;;;;13.10;4.92;;;;;;;20.88;68.07;100026.19;1782842;79;21077;-64
2022/08/19 04:34:58;;;;;;;11.03;4.53;;;;;;;20.87;68.12;100025.34;1786106;79;21509;-64
2022/08/19 04:37:27;;;;;;;12.33;4.95;;;;;;;20.85;67.97;100022.00;1797255;79;21085;-63
2022/08/19 04:42:48;;;;;;;12.00;4.85;;;;;;;20.91;67.94;100035.38;1798765;79;21069;-63
2022/08/19 04:45:18;;;;;;;13.15;4.85;;;;;;;20.93;67.63;100040.13;1787530;79;21006;-63
2022/08/19 04:47:50;;;;;;;12.25;5.17;;;;;;;20.91;67.61;100045.69;1811384;79;21037;-64
2022/08/19 04:50:22;;;;;;;10.63;4.92;;;;;;;20.91;67.61;100049.86;1798704;79;21070;-63
2022/08/19 04:52:55;;;;;;;9.13;4.85;;;;;;;20.90;67.61;100051.81;1799569;79;21050;-64
2022/08/19 04:55:27;;;;;;;14.15;5.00;;;;;;;20.88;67.57;100049.30;1779641;79;21042;-64
2022/08/19 04:57:57;;;;;;;8.68;4.78;;;;;;;20.89;67.50;100055.70;1802082;79;21112;-65
2022/08/19 05:00:28;;;;;;;11.03;4.50;;;;;;;20.92;67.56;100045.41;1778728;79;21027;-63
2022/08/19 05:02:58;;;;;;;12.53;4.83;;;;;;;20.95;67.34;100047.65;1788925;79;21547;-64
2022/08/19 05:05:30;;;;;;;8.40;4.60;;;;;;;20.97;67.37;100046.82;1794130;79;21035;-64
2022/08/19 05:08:02;;;;;;;9.43;4.70;;;;;;;21.00;67.18;100044.88;1787297;78;21038;-63
2022/08/19 05:10:32;;;;;;;10.08;4.83;;;;;;;20.97;67.19;100054.34;1777767;79;21041;-63
2022/08/19 05:13:02;;;;;;;12.68;5.17;;;;;;;21.00;67.11;100051.84;1791799;79;21014;-65
2022/08/19 05:15:32;;;;;;;15.68;8.93;;;;;;;21.05;67.00;100046.28;1789844;79;21003;-64
2022/08/19 05:23:39;;;;;;;14.90;7.05;;;;;;;21.11;66.75;100056.31;1780706;79;21007;-64
2022/08/19 05:26:10;;;;;;;12.05;6.00;;;;;;;21.11;66.70;100056.31;1803392;79;21473;-64
2022/08/19 05:28:40;;;;;;;9.08;4.75;;;;;;;21.15;66.59;100063.02;1792903;79;21449;-63
2022/08/19 05:31:10;;;;;;;11.22;5.20;;;;;;;21.15;66.59;100057.44;1804137;79;21034;-64
2022/08/19 05:33:39;;;;;;;8.70;4.53;;;;;;;21.15;66.68;100065.80;1788646;79;21027;-63
2022/08/19 05:36:09;;;;;;;10.68;4.97;;;;;;;21.19;66.61;100065.53;1789153;79;20987;-64
2022/08/19 05:38:38;;;;;;;9.60;4.25;;;;;;;21.23;66.45;100070.02;1795064;79;21057;-65
2022/08/19 05:41:12;;;;;;;13.32;5.22;;;;;;;21.26;66.43;100071.42;1810068;79;21035;-64
2022/08/19 05:43:43;;;;;;;13.48;5.30;;;;;;;21.28;66.24;100076.16;1811090;79;21065;-64
2022/08/19 05:46:18;;;;;;;12.03;4.90;;;;;;;21.31;66.26;100070.03;1799524;79;21498;-64
2022/08/19 05:48:50;;;;;;;16.07;5.30;;;;;;;21.33;66.15;100067.81;1792620;79;21031;-65
2022/08/19 05:51:24;;;;;;;12.05;4.70;;;;;;;21.33;66.07;100072.83;1802843;79;21107;-64
2022/08/19 05:53:56;;;;;;;7.17;4.37;;;;;;;21.36;66.01;100063.91;1772154;79;21051;-65
2022/08/19 05:56:25;;;;;;;10.98;4.95;;;;;;;21.40;65.95;100060.01;1791373;79;21447;-65
2022/08/19 05:58:54;;;;;;;11.08;5.37;;;;;;;21.39;65.90;100063.91;1801873;79;21074;-65
2022/08/19 06:01:26;;;;;;;10.72;4.85;;;;;;;21.42;65.76;100068.93;1794886;79;21014;-65
2022/08/19 06:03:57;;;;;;;19.77;5.50;;;;;;;21.41;65.68;100065.87;1807809;79;21039;-65
2022/08/19 06:06:26;;;;;;;14.75;5.35;;;;;;;21.41;65.85;100066.70;1778986;79;21051;-64
2022/08/19 06:08:56;;;;;;;9.93;4.85;;;;;;;21.46;65.79;100065.34;1795084;79;21008;-66
2022/08/19 06:11:53;;;;;;;20.65;5.22;;;;;;;21.47;65.67;100061.44;1793519;79;21055;-65
2022/08/19 06:14:29;;;;;;;8.33;4.63;;;;;;;21.49;65.56;100062.00;1790052;79;21101;-64
2022/08/19 06:17:01;;;;;;;9.30;4.58;;;;;;;21.50;65.50;100056.70;1786101;79;21015;-64
2022/08/19 06:19:33;;;;;;;7.40;4.40;;;;;;;21.48;65.51;100054.75;1783783;79;21087;-65
2022/08/19 06:22:06;;;;;;;9.90;4.40;;;;;;;21.49;65.80;100048.62;1772405;79;21072;-65
2022/08/19 06:24:36;;;;;;;11.63;5.03;;;;;;;21.53;65.69;100045.55;1787033;79;21031;-65
2022/08/19 06:27:06;;;;;;;15.70;5.05;;;;;;;21.59;65.68;100043.05;1789250;79;21035;-64
2022/08/19 06:29:36;;;;;;;8.33;4.80;;;;;;;21.61;65.46;100047.78;1778571;79;21059;-64
2022/08/19 06:32:07;;;;;;;9.60;4.55;;;;;;;21.63;65.71;100055.31;1794842;79;21305;-64
2022/08/19 06:34:37;;;;;;;11.00;4.10;;;;;;;21.66;65.45;100051.96;1794802;79;20972;-65
2022/08/19 06:37:06;;;;;;;9.48;4.58;;;;;;;21.75;65.60;100045.27;1785738;79;21345;-64
2022/08/19 06:39:38;;;;;;;11.45;4.50;;;;;;;22.03;65.10;100052.23;1788165;79;21026;-65
2022/08/19 06:42:11;;;;;;;8.68;4.65;;;;;;;22.40;64.11;100059.70;1787917;79;21466;-65
2022/08/19 06:44:41;;;;;;;6.72;4.30;;;;;;;22.77;63.01;100055.67;1789048;79;21435;-65
2022/08/19 06:47:15;;;;;;;11.65;4.60;;;;;;;23.19;62.11;100062.73;1799661;79;21042;-65
2022/08/19 06:49:46;;;;;;;8.85;4.60;;;;;;;23.55;60.82;100053.02;1788894;79;21467;-64
2022/08/19 06:52:16;;;;;;;11.45;4.80;;;;;;;23.95;59.64;100052.38;1778690;79;21026;-65
2022/08/19 06:54:46;;;;;;;9.30;4.37;;;;;;;24.35;57.92;100060.97;1790757;79;21058;-66
2022/08/19 06:57:18;;;;;;;12.35;4.78;;;;;;;24.68;57.20;100061.14;1793533;79;21032;-66
2022/08/19 06:59:48;;;;;;;11.10;4.87;;;;;;;25.05;55.59;100067.44;1788846;79;21065;-65
2022/08/19 07:02:17;;;;;;;14.43;5.15;;;;;;;25.34;54.61;100058.30;1788298;80;21049;-66
2022/08/19 07:04:47;;;;;;;12.33;4.35;;;;;;;25.68;53.96;100060.91;1788113;80;21070;-66
2022/08/19 07:07:19;;;;;;;9.80;6.25;;;;;;;25.95;52.57;100062.12;1787811;80;21530;-67
2022/08/19 07:09:52;;;;;;;15.25;5.03;;;;;;;26.17;52.22;100070.16;1788046;80;21030;-65
2022/08/19 07:12:24;;;;;;;10.63;4.45;;;;;;;26.41;51.27;100061.58;1787257;80;21427;-66
2022/08/19 07:14:55;;;;;;;10.55;4.50;;;;;;;26.56;51.08;100071.68;1788063;80;21034;-66
2022/08/19 07:17:27;;;;;;;16.37;5.37;;;;;;;26.82;50.57;100070.61;1788115;80;20994;-66
2022/08/19 07:19:56;;;;;;;17.77;5.15;;;;;;;27.06;49.92;100052.95;1788080;80;21022;-66
2022/08/19 07:22:26;;;;;;;13.05;4.30;;;;;;;27.06;49.92;100052.95;1788069;80;21053;-64
2022/08/19 07:24:57;;;;;;;11.70;5.08;;;;;;;27.23;49.10;100047.23;1787983;80;21319;-66
2022/08/19 07:27:26;;;;;;;14.40;4.83;;;;;;;27.40;48.52;100046.83;1788077;80;21430;-64
2022/08/19 07:29:57;;;;;;;11.25;4.58;;;;;;;27.69;48.27;100054.87;1788027;80;21073;-64
2022/08/19 07:32:32;;;;;;;8.35;4.30;;;;;;;28.01;46.97;100059.99;1788262;80;21021;-64
2022/08/19 07:35:03;;;;;;;8.75;4.75;;;;;;;28.22;46.36;100049.00;1787851;80;21053;-65
2022/08/19 07:37:33;;;;;;;16.70;4.72;;;;;;;28.29;46.20;100049.40;1788166;80;21089;-63
2022/08/19 07:40:05;;;;;;;10.08;4.47;;;;;;;28.35;45.80;100050.34;1788183;80;21018;-65
2022/08/19 07:42:35;;;;;;;12.70;4.58;;;;;;;28.39;45.41;100056.98;1788208;80;21053;-65
2022/08/19 07:45:05;;;;;;;8.53;4.75;;;;;;;28.40;44.85;100060.06;1786562;80;20990;-66
2022/08/19 07:47:35;;;;;;;17.00;5.08;;;;;;;28.41;45.05;100060.89;1780887;80;21034;-64
2022/08/19 07:50:08;;;;;;;13.22;4.78;;;;;;;28.52;44.86;100062.27;1773116;80;21101;-66
2022/08/19 07:52:39;;;;;;;12.45;4.45;;;;;;;28.60;44.82;100061.47;1780103;80;21065;-66
2022/08/19 07:55:09;;;;;;;10.93;4.47;;;;;;;28.64;44.52;100058.28;1787861;80;21057;-66
2022/08/19 07:57:40;;;;;;;14.25;5.35;;;;;;;28.66;44.18;100060.19;1783947;80;21069;-65
2022/08/19 08:00:10;;;;;;;9.95;4.53;;;;;;;28.63;44.64;100056.61;1800566;79;21098;-64
2022/08/19 08:02:42;;;;;;;13.05;4.55;;;;;;;28.77;44.28;100066.94;1798488;79;21066;-64
2022/08/19 08:09:10;;;;;;;11.05;4.37;;;;;;;28.92;44.02;100067.92;1816087;79;21466;-63
2022/08/19 08:10:54;;;;;;;12.65;4.85;;;;;;;29.03;43.29;100065.88;1791699;79;21058;-64
2022/08/19 08:13:26;;;;;;;15.18;4.85;;;;;;;29.00;43.55;100069.36;1789191;78;21026;-63
2022/08/19 08:15:56;;;;;;;16.50;5.05;;;;;;;29.00;43.97;100060.06;1808705;79;21568;-63
2022/08/19 08:18:25;;;;;;;10.93;4.80;;;;;;;29.08;43.59;100062.06;1802911;79;21427;-63
2022/08/19 08:20:58;;;;;;;9.95;4.67;;;;;;;29.11;43.22;100054.94;1807085;79;21015;-63
2022/08/19 08:23:28;;;;;;;14.47;4.47;;;;;;;29.16;43.43;100072.53;1801924;79;21035;-62
2022/08/19 08:25:59;;;;;;;12.58;4.67;;;;;;;29.25;43.62;100073.95;1799073;79;21085;-63
2022/08/19 08:28:30;;;;;;;21.30;5.70;;;;;;;29.42;43.09;100074.00;1797810;79;21101;-63
2022/08/19 08:31:00;;;;;;;11.43;5.10;;;;;;;29.48;42.80;100071.88;1797363;79;20983;-63
2022/08/19 08:33:31;;;;;;;12.03;5.25;;;;;;;29.65;42.39;100076.10;1812835;79;20971;-63
2022/08/19 08:36:04;;;;;;;15.03;5.00;;;;;;;29.73;42.50;100068.20;1801279;79;21054;-63
2022/08/19 08:38:36;;;;;;;16.05;5.08;;;;;;;29.73;42.25;100076.68;1790397;79;21082;-63
2022/08/19 08:41:27;;;;;;;11.93;4.22;;;;;;;29.76;42.17;100084.48;1815997;78;21026;-64
2022/08/19 08:43:58;;;;;;;13.80;5.22;;;;;;;29.67;42.06;100068.13;1775136;79;21532;-63
2022/08/19 08:46:47;;;;;;;15.45;5.00;;;;;;;29.62;42.10;100084.66;1802270;79;21108;-63
2022/08/19 08:49:43;;;;;;;13.78;4.97;;;;;;;29.74;42.46;100081.16;1805663;79;21059;-64
2022/08/19 08:52:29;;;;;;;12.10;4.87;;;;;;;29.93;42.12;100074.61;1790413;79;21396;-64
2022/08/19 08:55:04;;;;;;;10.35;4.47;;;;;;;30.00;42.17;100074.67;1777306;79;21139;-65
2022/08/19 08:57:54;;;;;;;8.40;4.85;;;;;;;30.06;41.82;100081.84;1801031;79;21030;-65
2022/08/19 09:00:37;;;;;;;15.58;4.92;;;;;;;30.01;41.54;100073.52;1802052;79;21082;-65
2022/08/19 09:03:17;;;;;;;15.60;5.92;;;;;;;29.76;42.30;100068.95;1791361;79;21485;-65
2022/08/19 09:06:03;;;;;;;16.97;5.03;;;;;;;29.65;42.48;100073.28;1802863;79;21041;-66
2022/08/19 09:08:50;;;;;;;11.48;4.87;;;;;;;29.42;43.03;100068.36;1788851;79;21004;-64
2022/08/19 09:11:52;;;;;;;17.73;5.75;;;;;;;29.28;43.39;100058.63;1794151;79;20972;-64
2022/08/19 09:14:41;;;;;;;12.88;5.03;;;;;;;29.21;43.80;100068.72;1778543;79;21488;-66
2022/08/19 09:17:13;;;;;;;10.20;5.08;;;;;;;29.12;43.78;100069.29;1766613;79;21015;-64
2022/08/19 09:20:09;;;;;;;8.95;4.67;;;;;;;29.00;44.34;100069.94;1806890;79;21114;-65
2022/08/19 09:22:43;;;;;;;11.90;5.12;;;;;;;28.94;44.72;100079.12;1799619;79;21078;-63
2022/08/19 09:25:17;;;;;;;10.68;4.85;;;;;;;28.94;44.74;100087.59;1795903;79;21132;-65
2022/08/19 09:27:57;;;;;;;9.55;4.62;;;;;;;28.89;44.94;100086.91;1782026;79;21026;-63
2022/08/19 09:30:27;;;;;;;10.18;5.00;;;;;;;28.72;45.13;100082.02;1790880;79;21007;-68
2022/08/19 09:33:00;;;;;;;13.35;5.05;;;;;;;28.33;46.46;100083.66;1782663;79;21458;-64
2022/08/19 09:35:30;;;;;;;13.62;4.97;;;;;;;28.33;46.46;100083.66;1803191;79;21046;-64
2022/08/19 09:38:00;;;;;;;11.30;5.20;;;;;;;28.22;46.65;100091.27;1788425;79;21042;-65
2022/08/19 09:40:32;;;;;;;8.60;5.10;;;;;;;28.07;47.19;100106.02;1788377;79;21470;-64
2022/08/19 09:43:04;;;;;;;9.20;4.65;;;;;;;27.92;47.42;100090.89;1790529;79;21007;-65
2022/08/19 09:45:36;;;;;;;11.20;5.28;;;;;;;27.85;47.80;100104.59;1785820;79;21006;-64
2022/08/19 09:48:06;;;;;;;9.13;4.75;;;;;;;27.83;47.99;100097.03;1780006;79;21026;-64
2022/08/19 09:50:38;;;;;;;8.95;4.80;;;;;;;27.84;48.51;100096.45;1801067;79;21004;-64
2022/08/19 09:53:07;;;;;;;11.63;5.30;;;;;;;27.84;48.51;100096.45;1798648;79;21012;-64
2022/08/19 09:55:38;;;;;;;10.68;4.78;;;;;;;27.85;48.29;100086.28;1807131;79;21007;-64
2022/08/19 09:58:08;;;;;;;14.55;7.05;;;;;;;27.88;48.19;100088.45;1793043;79;21129;-65
2022/08/19 10:00:38;;;;;;;11.97;5.70;;;;;;;27.85;48.24;100079.24;1784598;79;21078;-65
2022/08/19 10:03:07;;;;;;;14.63;5.30;;;;;;;27.80;48.73;100093.45;1790077;79;21038;-64
2022/08/19 10:05:49;;;;;;;11.63;5.30;;;;;;;27.76;48.59;100100.88;1791560;79;21031;-64
2022/08/19 10:08:21;;;;;;;11.75;5.22;;;;;;;27.73;48.73;100104.33;1781466;79;21058;-64
2022/08/19 10:10:52;;;;;;;12.90;5.30;;;;;;;27.69;48.38;100112.58;1794395;79;21466;-63
2022/08/19 10:13:24;;;;;;;10.28;5.37;;;;;;;27.57;48.75;100104.41;1791285;79;21036;-65
2022/08/19 10:15:56;;;;;;;12.98;5.62;;;;;;;27.41;49.27;100094.09;1791789;79;21119;-65
2022/08/19 10:18:25;;;;;;;9.28;5.35;;;;;;;27.37;49.44;100100.09;1800361;79;21519;-65
2022/08/19 10:21:08;;;;;;;12.25;4.80;;;;;;;27.36;49.73;100104.89;1802176;79;21043;-65
2022/08/19 10:23:48;;;;;;;12.35;5.40;;;;;;;27.33;49.80;100106.94;1795379;79;21018;-64
2022/08/19 10:26:27;;;;;;;11.63;4.95;;;;;;;27.23;50.14;100114.17;1790961;79;21090;-65
2022/08/19 10:28:58;;;;;;;11.20;4.85;;;;;;;27.20;50.24;100116.78;1780415;79;21086;-65
2022/08/19 10:31:30;;;;;;;10.70;4.87;;;;;;;27.16;50.49;100115.17;1803380;79;20998;-64
2022/08/19 10:34:01;;;;;;;11.57;5.20;;;;;;;27.15;50.66;100119.13;1780729;79;21043;-64
2022/08/19 10:36:35;;;;;;;9.95;4.65;;;;;;;27.13;50.67;100127.05;1800952;79;21506;-64
2022/08/19 10:39:09;;;;;;;10.98;4.97;;;;;;;26.98;50.99;100126.80;1787944;79;21067;-64
2022/08/19 10:41:39;;;;;;;12.05;5.60;;;;;;;26.84;51.54;100130.17;1794460;79;21043;-62
2022/08/19 10:44:10;;;;;;;10.45;5.05;;;;;;;26.79;51.61;100128.30;1794371;79;21121;-64
2022/08/19 10:46:44;;;;;;;12.73;5.10;;;;;;;26.78;51.71;100129.44;1798827;79;21051;-65
2022/08/19 10:49:16;;;;;;;14.68;4.92;;;;;;;26.77;51.96;100129.17;1795359;79;21027;-65
2022/08/19 10:57:28;;;;;;;10.70;5.50;;;;;;;26.97;51.51;100126.52;1784435;79;21076;-65
2022/08/19 10:59:58;;;;;;;11.57;4.95;;;;;;;27.04;51.28;100139.61;1773595;79;21049;-64
2022/08/19 11:02:28;;;;;;;10.43;4.60;;;;;;;27.09;51.23;100154.14;1787903;79;21235;-65
2022/08/19 11:04:58;;;;;;;10.38;4.90;;;;;;;27.13;50.75;100146.74;1794867;79;21057;-65
2022/08/19 11:07:30;;;;;;;11.85;5.17;;;;;;;27.08;50.64;100142.06;1786587;79;21112;-65
2022/08/19 11:10:01;;;;;;;8.98;4.67;;;;;;;26.99;51.00;100136.08;1803091;79;21109;-68
2022/08/19 11:12:32;;;;;;;9.63;4.85;;;;;;;26.98;51.13;100136.66;1798068;79;21490;-65
2022/08/19 11:15:02;;;;;;;13.20;4.90;;;;;;;27.01;50.98;100135.19;1798251;79;21070;-66
2022/08/19 11:17:31;;;;;;;10.48;4.90;;;;;;;27.01;50.57;100133.78;1787193;79;20999;-65
2022/08/19 11:20:04;;;;;;;13.53;4.87;;;;;;;27.01;50.67;100133.78;1796345;79;21577;-65
2022/08/19 11:22:33;;;;;;;6.95;4.50;;;;;;;27.01;50.66;100132.37;1782123;79;21054;-66
2022/08/19 11:25:04;;;;;;;9.83;4.37;;;;;;;27.08;50.16;100145.45;1806277;79;20996;-67
2022/08/19 11:27:38;;;;;;;9.63;4.67;;;;;;;27.04;50.14;100140.19;1803555;79;21470;-66
2022/08/19 11:30:09;;;;;;;13.13;5.37;;;;;;;26.99;50.08;100142.53;1797316;79;21045;-67
2022/08/19 11:32:41;;;;;;;17.30;8.10;;;;;;;26.94;49.89;100129.95;1772224;79;21023;-66
2022/08/19 11:35:13;;;;;;;15.40;6.42;;;;;;;26.88;50.13;100130.38;1798007;79;21081;-67
2022/08/19 11:37:43;;;;;;;12.28;5.40;;;;;;;26.82;50.12;100129.08;1773340;79;21003;-66
2022/08/19 11:40:13;;;;;;;10.72;5.30;;;;;;;26.78;50.00;100126.62;1806693;79;21439;-68
2022/08/19 11:43:02;;;;;;;10.82;5.22;;;;;;;26.73;50.09;100134.33;1800791;79;21074;-67
2022/08/19 11:45:19;;;;;;;14.00;5.42;;;;;;;26.73;50.23;100135.16;1812462;78;21003;-67
2022/08/19 11:47:51;;;;;;;12.35;4.62;;;;;;;26.74;50.23;100125.59;1807147;79;21086;-66
2022/08/19 11:50:23;;;;;;;12.73;5.45;;;;;;;26.76;50.15;100125.27;1789255;79;21077;-66
2022/08/19 11:52:55;;;;;;;13.03;5.35;;;;;;;26.75;50.29;100132.88;1798893;79;21063;-65
2022/08/19 11:55:25;;;;;;;8.05;4.87;;;;;;;26.71;50.65;100138.86;1798180;79;21015;-68
2022/08/19 11:57:54;;;;;;;8.70;5.00;;;;;;;26.71;50.58;100135.22;1786915;79;21090;-68
2022/08/19 12:00:24;;;;;;;12.68;4.67;;;;;;;26.69;50.74;100140.31;1791810;79;21529;-67